sensor_id;sensor_type;location;lat;lon;timestamp;temperature;humidity
3268;DHT22;1646;52.450;13.326;2023-05-07T00:00:09;10.90;99.90
3268;DHT22;1646;52.450;13.326;2023-05-07T00:05:08;10.80;99.90
3268;DHT22;1646;52.450;13.326;2023-05-07T00:10:09;10.80;99.90
3268;DHT22;1646;52.450;13.326;2023-05-07T00:15:09;10.90;99.90
3268;DHT22;1646;52.450;13.326;2023-05-07T00:20:09;10.90;99.90
3268;DHT22;1646;52.450;13.326;2023-05-07T00:25:09;10.90;99.90
3268;DHT22;1646;52.450;13.326;2023-05-07T00:30:08;10.90;99.90
3268;DHT22;1646;52.450;13.326;2023-05-07T00:35:08;10.90;99.90
3268;DHT22;1646;52.450;13.326;2023-05-07T00:40:09;10.90;99.90
3268;DHT22;1646;52.450;13.326;2023-05-07T00:45:08;10.90;99.90
3268;DHT22;1646;52.450;13.326;2023-05-07T00:50:08;10.90;99.90
3268;DHT22;1646;52.450;13.326;2023-05-07T00:55:09;10.90;99.90
3268;DHT22;1646;52.450;13.326;2023-05-07T01:00:09;10.90;99.90
3268;DHT22;1646;52.450;13.326;2023-05-07T01:05:13;10.90;99.90
3268;DHT22;1646;52.450;13.326;2023-05-07T01:10:14;10.80;99.90
3268;DHT22;1646;52.450;13.326;2023-05-07T01:15:13;10.90;99.90
3268;DHT22;1646;52.450;13.326;2023-05-07T01:20:11;11.00;99.90
3268;DHT22;1646;52.450;13.326;2023-05-07T01:25:13;11.10;99.90
3268;DHT22;1646;52.450;13.326;2023-05-07T01:30:19;11.10;99.90
3268;DHT22;1646;52.450;13.326;2023-05-07T01:35:22;11.00;99.90
3268;DHT22;1646;52.450;13.326;2023-05-07T01:40:22;11.10;99.90
3268;DHT22;1646;52.450;13.326;2023-05-07T01:45:21;11.00;99.90
3268;DHT22;1646;52.450;13.326;2023-05-07T01:50:20;11.00;99.90
3268;DHT22;1646;52.450;13.326;2023-05-07T01:55:18;11.00;99.90
3268;DHT22;1646;52.450;13.326;2023-05-07T02:00:19;10.90;99.90
3268;DHT22;1646;52.450;13.326;2023-05-07T02:05:18;10.90;99.90
3268;DHT22;1646;52.450;13.326;2023-05-07T02:10:22;10.90;99.90
3268;DHT22;1646;52.450;13.326;2023-05-07T02:15:22;10.90;99.90
3268;DHT22;1646;52.450;13.326;2023-05-07T02:20:21;10.90;99.90
3268;DHT22;1646;52.450;13.326;2023-05-07T02:25:20;10.90;99.90
3268;DHT22;1646;52.450;13.326;2023-05-07T02:30:18;10.80;99.90
3268;DHT22;1646;52.450;13.326;2023-05-07T02:35:24;10.80;99.90
3268;DHT22;1646;52.450;13.326;2023-05-07T02:40:23;10.70;99.90
3268;DHT22;1646;52.450;13.326;2023-05-07T02:45:21;10.70;99.90
3268;DHT22;1646;52.450;13.326;2023-05-07T02:50:23;10.70;99.90
3268;DHT22;1646;52.450;13.326;2023-05-07T02:55:22;10.70;99.90
3268;DHT22;1646;52.450;13.326;2023-05-07T03:00:21;10.60;99.90
3268;DHT22;1646;52.450;13.326;2023-05-07T03:05:31;10.60;99.90
3268;DHT22;1646;52.450;13.326;2023-05-07T03:10:29;10.60;99.90
3268;DHT22;1646;52.450;13.326;2023-05-07T03:15:28;10.60;99.90
3268;DHT22;1646;52.450;13.326;2023-05-07T03:20:27;10.60;99.90
3268;DHT22;1646;52.450;13.326;2023-05-07T03:25:27;10.70;99.90
3268;DHT22;1646;52.450;13.326;2023-05-07T03:30:27;10.70;99.90
3268;DHT22;1646;52.450;13.326;2023-05-07T03:35:25;10.80;99.90
3268;DHT22;1646;52.450;13.326;2023-05-07T03:40:24;10.80;99.90
3268;DHT22;1646;52.450;13.326;2023-05-07T03:45:25;10.80;99.90
3268;DHT22;1646;52.450;13.326;2023-05-07T03:50:38;10.80;99.90
3268;DHT22;1646;52.450;13.326;2023-05-07T03:55:36;10.70;99.90
3268;DHT22;1646;52.450;13.326;2023-05-07T04:00:37;10.70;99.90
3268;DHT22;1646;52.450;13.326;2023-05-07T04:05:52;10.70;99.90
3268;DHT22;1646;52.450;13.326;2023-05-07T04:10:54;10.70;99.90
3268;DHT22;1646;52.450;13.326;2023-05-07T04:15:56;10.60;99.90
3268;DHT22;1646;52.450;13.326;2023-05-07T04:20:55;10.60;99.90
3268;DHT22;1646;52.450;13.326;2023-05-07T04:25:54;10.60;99.90
3268;DHT22;1646;52.450;13.326;2023-05-07T04:31:03;10.50;99.90
3268;DHT22;1646;52.450;13.326;2023-05-07T04:36:04;10.60;99.90
3268;DHT22;1646;52.450;13.326;2023-05-07T04:41:09;10.70;99.90
3268;DHT22;1646;52.450;13.326;2023-05-07T04:46:11;10.70;99.90
3268;DHT22;1646;52.450;13.326;2023-05-07T04:51:11;10.60;99.90
3268;DHT22;1646;52.450;13.326;2023-05-07T04:56:10;10.60;99.90
3268;DHT22;1646;52.450;13.326;2023-05-07T05:01:13;10.70;99.90
3268;DHT22;1646;52.450;13.326;2023-05-07T05:06:11;10.80;99.90
3268;DHT22;1646;52.450;13.326;2023-05-07T05:11:09;10.80;99.90
3268;DHT22;1646;52.450;13.326;2023-05-07T05:16:08;10.80;99.90
3268;DHT22;1646;52.450;13.326;2023-05-07T05:21:09;10.80;99.90
3268;DHT22;1646;52.450;13.326;2023-05-07T05:26:08;10.80;99.90
3268;DHT22;1646;52.450;13.326;2023-05-07T05:31:07;10.60;99.90
3268;DHT22;1646;52.450;13.326;2023-05-07T05:36:09;10.70;99.90
3268;DHT22;1646;52.450;13.326;2023-05-07T05:41:08;10.80;99.90
3268;DHT22;1646;52.450;13.326;2023-05-07T05:46:06;11.00;99.90
3268;DHT22;1646;52.450;13.326;2023-05-07T05:51:06;11.00;99.90
3268;DHT22;1646;52.450;13.326;2023-05-07T05:56:06;11.00;99.90
3268;DHT22;1646;52.450;13.326;2023-05-07T06:01:06;11.10;99.90
3268;DHT22;1646;52.450;13.326;2023-05-07T06:06:06;11.30;99.90
3268;DHT22;1646;52.450;13.326;2023-05-07T06:11:06;11.60;99.90
3268;DHT22;1646;52.450;13.326;2023-05-07T06:16:07;11.70;99.90
3268;DHT22;1646;52.450;13.326;2023-05-07T06:21:06;11.90;99.90
3268;DHT22;1646;52.450;13.326;2023-05-07T06:26:06;11.90;99.90
3268;DHT22;1646;52.450;13.326;2023-05-07T06:31:13;11.70;99.90
3268;DHT22;1646;52.450;13.326;2023-05-07T06:36:16;11.60;99.90
3268;DHT22;1646;52.450;13.326;2023-05-07T06:41:17;11.90;99.90
3268;DHT22;1646;52.450;13.326;2023-05-07T06:46:15;12.00;99.90
3268;DHT22;1646;52.450;13.326;2023-05-07T06:51:14;12.00;99.90
3268;DHT22;1646;52.450;13.326;2023-05-07T06:56:12;12.00;99.90
3268;DHT22;1646;52.450;13.326;2023-05-07T07:01:12;11.80;99.90
3268;DHT22;1646;52.450;13.326;2023-05-07T07:06:12;12.00;99.90
3268;DHT22;1646;52.450;13.326;2023-05-07T07:11:11;12.10;99.90
3268;DHT22;1646;52.450;13.326;2023-05-07T07:16:09;12.20;99.90
3268;DHT22;1646;52.450;13.326;2023-05-07T07:21:09;12.40;99.90
3268;DHT22;1646;52.450;13.326;2023-05-07T07:26:08;12.40;99.90
3268;DHT22;1646;52.450;13.326;2023-05-07T07:31:06;12.60;99.90
3268;DHT22;1646;52.450;13.326;2023-05-07T07:36:05;12.70;99.90
3268;DHT22;1646;52.450;13.326;2023-05-07T07:41:08;12.80;99.90
3268;DHT22;1646;52.450;13.326;2023-05-07T07:46:06;13.10;99.90
3268;DHT22;1646;52.450;13.326;2023-05-07T07:51:05;13.50;99.90
3268;DHT22;1646;52.450;13.326;2023-05-07T07:56:06;14.10;99.90
3268;DHT22;1646;52.450;13.326;2023-05-07T08:01:04;14.60;99.90
3268;DHT22;1646;52.450;13.326;2023-05-07T08:06:03;14.70;99.90
3268;DHT22;1646;52.450;13.326;2023-05-07T08:11:05;14.70;99.90
3268;DHT22;1646;52.450;13.326;2023-05-07T08:16:05;15.00;99.90
3268;DHT22;1646;52.450;13.326;2023-05-07T08:21:05;15.50;99.90
3268;DHT22;1646;52.450;13.326;2023-05-07T08:26:07;15.30;99.90
3268;DHT22;1646;52.450;13.326;2023-05-07T08:31:06;15.10;99.90
3268;DHT22;1646;52.450;13.326;2023-05-07T08:36:08;15.30;99.90
3268;DHT22;1646;52.450;13.326;2023-05-07T08:41:10;15.70;99.90
3268;DHT22;1646;52.450;13.326;2023-05-07T08:46:10;16.10;99.90
3268;DHT22;1646;52.450;13.326;2023-05-07T08:51:13;16.10;99.90
3268;DHT22;1646;52.450;13.326;2023-05-07T08:56:13;15.80;99.90
3268;DHT22;1646;52.450;13.326;2023-05-07T09:01:14;16.00;99.90
3268;DHT22;1646;52.450;13.326;2023-05-07T09:06:15;16.30;99.90
3268;DHT22;1646;52.450;13.326;2023-05-07T09:11:16;16.20;99.90
3268;DHT22;1646;52.450;13.326;2023-05-07T09:16:15;17.00;99.90
3268;DHT22;1646;52.450;13.326;2023-05-07T09:21:15;18.00;99.90
3268;DHT22;1646;52.450;13.326;2023-05-07T09:26:17;18.50;99.90
3268;DHT22;1646;52.450;13.326;2023-05-07T09:31:17;18.50;99.90
3268;DHT22;1646;52.450;13.326;2023-05-07T09:36:18;19.00;99.90
3268;DHT22;1646;52.450;13.326;2023-05-07T09:41:18;18.90;99.90
3268;DHT22;1646;52.450;13.326;2023-05-07T09:46:36;18.90;99.90
3268;DHT22;1646;52.450;13.326;2023-05-07T09:51:48;18.50;99.90
3268;DHT22;1646;52.450;13.326;2023-05-07T09:56:52;17.80;99.90
3268;DHT22;1646;52.450;13.326;2023-05-07T10:01:57;17.30;99.90
3268;DHT22;1646;52.450;13.326;2023-05-07T10:06:59;16.40;99.90
3268;DHT22;1646;52.450;13.326;2023-05-07T10:12:03;16.30;99.90
3268;DHT22;1646;52.450;13.326;2023-05-07T10:17:03;16.30;99.90
3268;DHT22;1646;52.450;13.326;2023-05-07T10:22:04;16.20;99.90
3268;DHT22;1646;52.450;13.326;2023-05-07T10:27:12;16.50;99.90
3268;DHT22;1646;52.450;13.326;2023-05-07T10:32:37;16.50;99.90
3268;DHT22;1646;52.450;13.326;2023-05-07T10:37:40;16.80;99.90
3268;DHT22;1646;52.450;13.326;2023-05-07T10:42:53;17.10;99.90
3268;DHT22;1646;52.450;13.326;2023-05-07T10:48:07;17.60;99.90
3268;DHT22;1646;52.450;13.326;2023-05-07T10:53:28;17.70;99.90
3268;DHT22;1646;52.450;13.326;2023-05-07T10:58:43;17.10;99.90
3268;DHT22;1646;52.450;13.326;2023-05-07T11:04:20;17.40;99.90
3268;DHT22;1646;52.450;13.326;2023-05-07T11:09:54;17.60;99.90
3268;DHT22;1646;52.450;13.326;2023-05-07T11:15:13;17.70;99.90
3268;DHT22;1646;52.450;13.326;2023-05-07T11:20:13;18.10;99.90
3268;DHT22;1646;52.450;13.326;2023-05-07T11:25:19;18.00;99.90
3268;DHT22;1646;52.450;13.326;2023-05-07T11:30:26;17.70;99.90
3268;DHT22;1646;52.450;13.326;2023-05-07T11:35:26;18.30;99.90
3268;DHT22;1646;52.450;13.326;2023-05-07T11:40:25;19.20;99.90
3268;DHT22;1646;52.450;13.326;2023-05-07T11:45:26;20.00;99.90
3268;DHT22;1646;52.450;13.326;2023-05-07T11:50:25;20.30;99.90
3268;DHT22;1646;52.450;13.326;2023-05-07T11:55:24;19.90;99.90
3268;DHT22;1646;52.450;13.326;2023-05-07T12:00:22;19.50;99.90
3268;DHT22;1646;52.450;13.326;2023-05-07T12:05:22;19.10;99.90
3268;DHT22;1646;52.450;13.326;2023-05-07T12:10:20;18.70;99.90
3268;DHT22;1646;52.450;13.326;2023-05-07T12:15:22;18.20;99.90
3268;DHT22;1646;52.450;13.326;2023-05-07T12:20:22;17.90;99.90
3268;DHT22;1646;52.450;13.326;2023-05-07T12:25:20;18.50;99.90
3268;DHT22;1646;52.450;13.326;2023-05-07T12:30:19;18.60;99.90
3268;DHT22;1646;52.450;13.326;2023-05-07T12:35:17;18.70;99.90
3268;DHT22;1646;52.450;13.326;2023-05-07T12:40:16;19.20;99.90
3268;DHT22;1646;52.450;13.326;2023-05-07T12:45:16;19.30;99.90
3268;DHT22;1646;52.450;13.326;2023-05-07T12:50:15;19.30;99.90
3268;DHT22;1646;52.450;13.326;2023-05-07T12:55:15;19.60;99.90
3268;DHT22;1646;52.450;13.326;2023-05-07T13:00:15;19.70;99.90
3268;DHT22;1646;52.450;13.326;2023-05-07T13:05:14;19.80;99.90
3268;DHT22;1646;52.450;13.326;2023-05-07T13:10:12;19.50;98.70
3268;DHT22;1646;52.450;13.326;2023-05-07T13:15:10;19.30;98.00
3268;DHT22;1646;52.450;13.326;2023-05-07T13:20:11;19.70;99.90
3268;DHT22;1646;52.450;13.326;2023-05-07T13:25:10;20.50;99.90
3268;DHT22;1646;52.450;13.326;2023-05-07T13:30:09;20.30;98.00
3268;DHT22;1646;52.450;13.326;2023-05-07T13:35:07;20.10;97.70
3268;DHT22;1646;52.450;13.326;2023-05-07T13:40:08;20.20;98.00
3268;DHT22;1646;52.450;13.326;2023-05-07T13:45:09;19.80;96.30
3268;DHT22;1646;52.450;13.326;2023-05-07T13:50:08;19.60;98.30
3268;DHT22;1646;52.450;13.326;2023-05-07T13:55:10;19.50;97.10
3268;DHT22;1646;52.450;13.326;2023-05-07T14:00:09;19.20;98.20
3268;DHT22;1646;52.450;13.326;2023-05-07T14:05:10;19.30;97.50
3268;DHT22;1646;52.450;13.326;2023-05-07T14:10:11;19.30;95.70
3268;DHT22;1646;52.450;13.326;2023-05-07T14:15:11;19.60;98.80
3268;DHT22;1646;52.450;13.326;2023-05-07T14:20:10;19.90;97.50
3268;DHT22;1646;52.450;13.326;2023-05-07T14:25:09;20.30;97.50
3268;DHT22;1646;52.450;13.326;2023-05-07T14:30:09;20.20;96.00
3268;DHT22;1646;52.450;13.326;2023-05-07T14:35:08;19.60;97.70
3268;DHT22;1646;52.450;13.326;2023-05-07T14:40:08;19.20;97.00
3268;DHT22;1646;52.450;13.326;2023-05-07T14:45:10;18.80;98.00
3268;DHT22;1646;52.450;13.326;2023-05-07T14:50:09;18.90;98.10
3268;DHT22;1646;52.450;13.326;2023-05-07T14:55:08;18.50;97.10
3268;DHT22;1646;52.450;13.326;2023-05-07T15:00:10;18.60;98.10
3268;DHT22;1646;52.450;13.326;2023-05-07T15:05:09;18.60;98.10
3268;DHT22;1646;52.450;13.326;2023-05-07T15:10:09;18.40;97.40
3268;DHT22;1646;52.450;13.326;2023-05-07T15:15:10;18.30;97.40
3268;DHT22;1646;52.450;13.326;2023-05-07T15:20:09;18.20;97.30
3268;DHT22;1646;52.450;13.326;2023-05-07T15:25:08;18.10;98.30
3268;DHT22;1646;52.450;13.326;2023-05-07T15:30:07;18.20;98.50
3268;DHT22;1646;52.450;13.326;2023-05-07T15:35:09;18.80;98.70
3268;DHT22;1646;52.450;13.326;2023-05-07T15:40:08;18.80;96.60
3268;DHT22;1646;52.450;13.326;2023-05-07T15:45:09;18.70;97.60
3268;DHT22;1646;52.450;13.326;2023-05-07T15:50:09;18.90;97.50
3268;DHT22;1646;52.450;13.326;2023-05-07T15:55:08;19.20;96.70
3268;DHT22;1646;52.450;13.326;2023-05-07T16:00:08;19.80;97.30
3268;DHT22;1646;52.450;13.326;2023-05-07T16:05:09;19.80;95.90
3268;DHT22;1646;52.450;13.326;2023-05-07T16:10:10;19.40;97.20
3268;DHT22;1646;52.450;13.326;2023-05-07T16:15:09;19.40;97.10
3268;DHT22;1646;52.450;13.326;2023-05-07T16:20:11;19.40;96.20
3268;DHT22;1646;52.450;13.326;2023-05-07T16:25:11;19.30;95.80
3268;DHT22;1646;52.450;13.326;2023-05-07T16:30:11;18.90;96.30
3268;DHT22;1646;52.450;13.326;2023-05-07T16:35:10;18.30;97.20
3268;DHT22;1646;52.450;13.326;2023-05-07T16:40:10;17.50;98.10
3268;DHT22;1646;52.450;13.326;2023-05-07T16:45:09;17.30;97.40
3268;DHT22;1646;52.450;13.326;2023-05-07T16:50:10;17.10;97.70
3268;DHT22;1646;52.450;13.326;2023-05-07T16:55:08;17.10;98.30
3268;DHT22;1646;52.450;13.326;2023-05-07T17:00:08;17.00;97.60
3268;DHT22;1646;52.450;13.326;2023-05-07T17:05:09;16.80;98.10
3268;DHT22;1646;52.450;13.326;2023-05-07T17:10:08;16.80;98.60
3268;DHT22;1646;52.450;13.326;2023-05-07T17:15:08;16.80;98.10
3268;DHT22;1646;52.450;13.326;2023-05-07T17:20:07;16.60;97.60
3268;DHT22;1646;52.450;13.326;2023-05-07T17:25:08;16.40;97.80
3268;DHT22;1646;52.450;13.326;2023-05-07T17:30:09;16.40;98.10
3268;DHT22;1646;52.450;13.326;2023-05-07T17:35:09;16.30;98.70
3268;DHT22;1646;52.450;13.326;2023-05-07T17:40:09;16.00;99.20
3268;DHT22;1646;52.450;13.326;2023-05-07T17:45:08;16.00;99.70
3268;DHT22;1646;52.450;13.326;2023-05-07T17:50:08;15.70;99.90
3268;DHT22;1646;52.450;13.326;2023-05-07T17:55:09;15.60;99.90
3268;DHT22;1646;52.450;13.326;2023-05-07T18:00:09;15.60;99.90
3268;DHT22;1646;52.450;13.326;2023-05-07T18:05:08;15.50;99.90
3268;DHT22;1646;52.450;13.326;2023-05-07T18:10:07;15.50;99.90
3268;DHT22;1646;52.450;13.326;2023-05-07T18:15:08;15.30;99.60
3268;DHT22;1646;52.450;13.326;2023-05-07T18:20:06;15.20;99.40
3268;DHT22;1646;52.450;13.326;2023-05-07T18:25:07;15.00;99.90
3268;DHT22;1646;52.450;13.326;2023-05-07T18:30:08;15.00;99.90
3268;DHT22;1646;52.450;13.326;2023-05-07T18:35:08;14.90;99.90
3268;DHT22;1646;52.450;13.326;2023-05-07T18:40:07;14.80;99.90
3268;DHT22;1646;52.450;13.326;2023-05-07T18:45:08;14.80;99.90
3268;DHT22;1646;52.450;13.326;2023-05-07T18:50:07;14.80;99.90
3268;DHT22;1646;52.450;13.326;2023-05-07T18:55:06;14.60;99.90
3268;DHT22;1646;52.450;13.326;2023-05-07T19:00:09;14.60;99.90
3268;DHT22;1646;52.450;13.326;2023-05-07T19:05:08;14.50;99.90
3268;DHT22;1646;52.450;13.326;2023-05-07T19:10:08;14.50;99.90
3268;DHT22;1646;52.450;13.326;2023-05-07T19:15:09;14.40;99.90
3268;DHT22;1646;52.450;13.326;2023-05-07T19:20:08;14.50;99.90
3268;DHT22;1646;52.450;13.326;2023-05-07T19:25:07;14.50;99.90
3268;DHT22;1646;52.450;13.326;2023-05-07T19:30:09;14.50;99.90
3268;DHT22;1646;52.450;13.326;2023-05-07T19:35:08;14.60;99.90
3268;DHT22;1646;52.450;13.326;2023-05-07T19:40:07;14.40;99.90
3268;DHT22;1646;52.450;13.326;2023-05-07T19:45:06;14.40;99.90
3268;DHT22;1646;52.450;13.326;2023-05-07T19:50:08;14.30;99.90
3268;DHT22;1646;52.450;13.326;2023-05-07T19:55:07;14.10;99.90
3268;DHT22;1646;52.450;13.326;2023-05-07T20:00:07;13.90;99.90
3268;DHT22;1646;52.450;13.326;2023-05-07T20:05:13;13.80;99.90
3268;DHT22;1646;52.450;13.326;2023-05-07T20:10:11;13.50;99.90
3268;DHT22;1646;52.450;13.326;2023-05-07T20:15:10;13.40;99.90
3268;DHT22;1646;52.450;13.326;2023-05-07T20:20:09;13.30;99.90
3268;DHT22;1646;52.450;13.326;2023-05-07T20:25:10;13.30;99.90
3268;DHT22;1646;52.450;13.326;2023-05-07T20:30:10;13.10;99.90
3268;DHT22;1646;52.450;13.326;2023-05-07T20:35:10;12.90;99.90
3268;DHT22;1646;52.450;13.326;2023-05-07T20:40:10;12.80;99.90
3268;DHT22;1646;52.450;13.326;2023-05-07T20:45:10;12.80;99.90
3268;DHT22;1646;52.450;13.326;2023-05-07T20:50:08;12.70;99.90
3268;DHT22;1646;52.450;13.326;2023-05-07T20:55:08;12.50;99.90
3268;DHT22;1646;52.450;13.326;2023-05-07T21:00:08;12.40;99.90
3268;DHT22;1646;52.450;13.326;2023-05-07T21:05:08;12.40;99.90
3268;DHT22;1646;52.450;13.326;2023-05-07T21:10:07;12.40;99.90
3268;DHT22;1646;52.450;13.326;2023-05-07T21:15:08;12.30;99.90
3268;DHT22;1646;52.450;13.326;2023-05-07T21:20:08;12.20;99.90
3268;DHT22;1646;52.450;13.326;2023-05-07T21:25:08;12.10;99.90
3268;DHT22;1646;52.450;13.326;2023-05-07T21:30:12;12.00;99.90
3268;DHT22;1646;52.450;13.326;2023-05-07T21:35:11;12.00;99.90
3268;DHT22;1646;52.450;13.326;2023-05-07T21:40:10;12.00;99.90
3268;DHT22;1646;52.450;13.326;2023-05-07T21:45:11;12.00;99.90
3268;DHT22;1646;52.450;13.326;2023-05-07T21:50:10;11.90;99.90
3268;DHT22;1646;52.450;13.326;2023-05-07T21:55:09;11.90;99.90
3268;DHT22;1646;52.450;13.326;2023-05-07T22:00:10;11.90;99.90
3268;DHT22;1646;52.450;13.326;2023-05-07T22:05:08;11.70;99.90
3268;DHT22;1646;52.450;13.326;2023-05-07T22:10:08;11.60;99.90
3268;DHT22;1646;52.450;13.326;2023-05-07T22:15:07;11.50;99.90
3268;DHT22;1646;52.450;13.326;2023-05-07T22:20:08;11.50;99.90
3268;DHT22;1646;52.450;13.326;2023-05-07T22:25:08;11.40;99.90
3268;DHT22;1646;52.450;13.326;2023-05-07T22:30:07;11.40;99.90
3268;DHT22;1646;52.450;13.326;2023-05-07T22:35:08;11.30;99.90
3268;DHT22;1646;52.450;13.326;2023-05-07T22:40:07;11.20;99.90
3268;DHT22;1646;52.450;13.326;2023-05-07T22:45:07;11.10;99.90
3268;DHT22;1646;52.450;13.326;2023-05-07T22:50:07;11.10;99.90
3268;DHT22;1646;52.450;13.326;2023-05-07T22:55:07;11.10;99.90
3268;DHT22;1646;52.450;13.326;2023-05-07T23:00:06;11.10;99.90
3268;DHT22;1646;52.450;13.326;2023-05-07T23:05:07;11.10;99.90
3268;DHT22;1646;52.450;13.326;2023-05-07T23:10:06;11.10;99.90
3268;DHT22;1646;52.450;13.326;2023-05-07T23:15:06;11.20;99.90
3268;DHT22;1646;52.450;13.326;2023-05-07T23:20:07;11.20;99.90
3268;DHT22;1646;52.450;13.326;2023-05-07T23:25:06;11.20;99.90
3268;DHT22;1646;52.450;13.326;2023-05-07T23:30:06;11.20;99.90
3268;DHT22;1646;52.450;13.326;2023-05-07T23:35:07;11.10;99.90
3268;DHT22;1646;52.450;13.326;2023-05-07T23:40:06;11.00;99.90
3268;DHT22;1646;52.450;13.326;2023-05-07T23:45:05;11.10;99.90
3268;DHT22;1646;52.450;13.326;2023-05-07T23:50:04;11.00;99.90
3268;DHT22;1646;52.450;13.326;2023-05-07T23:55:05;11.00;99.90
